Hauptseite
METAR-TAF:

METAR-TAF

Flughäfen :

Flughafen Weeze

Weeze, Deutschland

Breite: 51-36-09N, Länge: 006-08-32E, Höhe: 32 m

Beobachtung

Neuester Wetterbericht von vor 33 Minuten, um 02:50 UTC
Wind 7 kt aus Süd/Südwest
Temperatur 14°C
Luftfeuchtigkeit 88%
Luftdruck 1026 hPa
Sichtweite 10 km oder mehr
keine Wolken unter 1500 m und keine Kumulonimbus oder Gewitterwolken

METAR: EDLV 130250Z 20007KT CAVOK 14/12 Q1026

Zeit: 05:23 (03:23 UTC)

Prognose

Neuester Wetterbericht von vor 10 Stunden und 23 Minuten, um 17:00 UTC
Gültige Prognose vom 12 um 18 UTC bis 13 um 18 UTC
Wind 6 kt aus Südwest
Sichtweite 10 km oder mehr
Aufgelockert bewölkt in der Höhe von 4500 ft
Übergehend zu
vom 13 um 08 UTC bis 13 um 12 UTC
Wind 13 kt aus Südwest

TAF: EDLV 121700Z 1218/1318 22006KT 9999 SCT045 BECMG 1308/1312 23013KT

Wetterbeobachtungen und Prognosen von mehr als 4000 Flughäfen (METAR und TAF Bericht).

Die verfügbaren Stationen werden durch gelbe und rote Markierungen auf der Karte dargestellt.

Führen Sie die Maus auf sie, um den Namen der Station zu sehen.

Darauf klicken, um die Beobachtung von Wetterbeobachtungen und Prognosen zu sehen.

Um die Karte zu ändern : klicken Sie auf den grünen Tasten mit einem schwarzen Kreuz Zum Vergrößern, auf den grünen Button mit einem Gedankenstrich zu verkleinern, oder auf die grünen Pfeile für benachbarte Karten.


METAR-TAF: